Time;durP1;ratioP1;P1;durP2;ratioP2;P2;SDS_P1;SDS_P2;PMS_P1;PMS_P2;Temp;Humidity;BMP_temperature;BMP_pressure;BME280_temperature;BME280_humidity;BME280_pressure;Samples;Min_cycle;Max_cycle;Signal;HPM_P1;HPM_P2
2020/12/21 00:00:55;;;;;;;38.00;21.50;;;;;;;-1.50;58.67;102678.88;5003350;28;20053;-96
2020/12/21 00:03:24;;;;;;;46.20;23.13;;;;;;;-2.24;58.20;102506.38;5014475;28;20096;-95
2020/12/21 00:05:55;;;;;;;35.95;20.33;;;;;;;-2.16;58.73;102552.78;5016553;28;20052;-96
2020/12/21 00:17:00;;;;;;;43.15;26.00;;;;;;;-1.12;58.01;102714.84;5022803;23;20061;-94
2020/12/21 00:22:17;;;;;;;49.13;27.23;;;;;;;-4.05;57.00;102175.34;5652091;23;20061;-96
2020/12/21 00:27:20;;;;;;;58.25;31.67;;;;;;;-4.01;57.71;102164.16;5522314;23;20054;-96
2020/12/21 00:32:43;;;;;;;52.10;29.80;;;;;;;-0.62;56.85;102711.69;5226077;23;20059;-95
2020/12/21 00:35:18;;;;;;;52.22;30.85;;;;;;;-1.31;56.55;102563.28;4998804;28;20030;-96
2020/12/21 00:37:45;;;;;;;56.17;28.65;;;;;;;-0.75;55.61;102654.72;4995158;28;20035;-94
2020/12/21 00:40:12;;;;;;;51.08;29.92;;;;;;;-2.23;55.22;102377.88;5002451;28;20109;-92
2020/12/21 00:42:39;;;;;;;50.88;29.02;;;;;;;-0.36;55.33;102708.63;5002399;28;20034;-94
2020/12/21 00:45:06;;;;;;;44.35;26.70;;;;;;;-0.87;55.94;102637.56;4976310;28;20049;-89
2020/12/21 00:47:34;;;;;;;46.70;27.35;;;;;;;-0.42;56.10;102690.97;4994817;28;20040;-94
2020/12/21 00:50:01;;;;;;;47.60;29.52;;;;;;;-0.64;55.84;102652.94;4974462;28;20032;-90
2020/12/21 00:52:28;;;;;;;55.83;30.52;;;;;;;-1.12;55.39;102540.84;4976699;28;20022;-91
2020/12/21 00:54:55;;;;;;;53.85;30.45;;;;;;;-1.40;55.42;102515.97;4978770;28;20027;-86
2020/12/21 00:57:38;;;;;;;45.10;29.13;;;;;;;-1.21;54.66;102500.88;4983581;28;20080;-94
2020/12/21 01:00:07;;;;;;;55.78;30.55;;;;;;;-1.61;53.66;102439.84;4978966;28;20035;-94
2020/12/21 01:02:40;;;;;;;49.78;29.75;;;;;;;-2.21;54.07;102333.34;4984583;28;20011;-96
2020/12/21 01:05:12;;;;;;;53.28;27.17;;;;;;;0.03;53.43;102705.41;4987792;28;20054;-96
2020/12/21 01:07:39;;;;;;;48.67;26.80;;;;;;;0.02;51.32;102700.06;4989574;28;20033;-96
2020/12/21 01:10:06;;;;;;;36.75;22.75;;;;;;;-0.09;48.86;102651.97;4990397;28;20479;-96
2020/12/21 01:13:01;;;;;;;39.10;21.80;;;;;;;-1.60;47.24;102466.84;4990411;28;20030;-96
2020/12/21 01:16:51;;;;;;;35.67;18.42;;;;;;;-2.36;44.37;102323.75;5001490;28;20018;-96
2020/12/21 01:19:59;;;;;;;41.67;21.23;;;;;;;-0.16;46.33;102693.34;4965998;29;20046;-96
2020/12/21 01:22:26;;;;;;;34.15;20.23;;;;;;;-0.31;45.32;102615.69;4938585;29;20515;-92
2020/12/21 01:25:02;;;;;;;45.75;23.15;;;;;;;0.51;46.50;102714.03;4930966;28;20044;-96
2020/12/21 01:27:29;;;;;;;35.03;21.63;;;;;;;0.45;46.69;102665.50;4941640;29;20043;-94
2020/12/21 01:30:06;;;;;;;44.35;23.55;;;;;;;0.39;46.42;102640.53;4928280;29;20027;-95
2020/12/21 01:32:33;;;;;;;34.80;22.05;;;;;;;0.38;46.64;102698.75;4940951;28;21730;-96
2020/12/21 01:35:09;;;;;;;38.90;20.95;;;;;;;-0.59;46.17;102509.25;4982604;28;20093;-96
2020/12/21 01:37:36;;;;;;;39.92;19.95;;;;;;;0.72;45.37;102710.41;5105472;23;20057;-95
2020/12/21 01:40:10;;;;;;;23.00;16.50;;;;;;;0.88;41.02;102699.00;5017850;28;20041;-96
2020/12/21 01:42:38;;;;;;;27.45;14.20;;;;;;;0.82;37.15;102692.22;5005971;28;20049;-94
2020/12/21 01:45:09;;;;;;;29.98;14.88;;;;;;;0.73;38.21;102677.56;5021009;28;20065;-95
2020/12/21 01:47:36;;;;;;;31.73;17.92;;;;;;;0.46;38.87;102626.38;4991360;28;20030;-94
2020/12/21 01:50:07;;;;;;;34.50;21.90;;;;;;;0.08;40.91;102607.81;5015921;28;20022;-94
2020/12/21 01:52:34;;;;;;;;;;;;;;;0.80;39.66;102694.22;5009599;28;20033;-96
2020/12/21 01:55:02;;;;;;;34.53;20.23;;;;;;;0.21;40.95;102615.75;5014973;28;20345;-95
2020/12/21 01:57:28;;;;;;;36.78;21.63;;;;;;;0.36;40.77;102610.81;5020493;28;20478;-95
2020/12/21 01:59:55;;;;;;;43.83;25.23;;;;;;;0.50;42.16;102639.56;5015895;28;20034;-95
2020/12/21 02:02:23;;;;;;;44.70;27.02;;;;;;;-0.31;43.09;102539.47;4999222;28;20029;-96
2020/12/21 02:04:50;;;;;;;47.10;26.85;;;;;;;0.24;43.14;102609.19;4998438;28;20061;-96
2020/12/21 02:07:17;;;;;;;42.97;24.80;;;;;;;0.28;41.92;102539.78;4998922;28;20018;-96
2020/12/21 02:09:44;;;;;;;50.10;26.60;;;;;;;1.05;41.82;102651.09;5001547;28;20026;-94
2020/12/21 02:12:11;;;;;;;54.53;27.27;;;;;;;0.53;42.20;102570.28;4998391;28;20029;-95
2020/12/21 02:14:38;;;;;;;43.58;25.08;;;;;;;1.07;40.48;102676.38;4998825;28;20037;-95
2020/12/21 02:17:05;;;;;;;41.00;21.67;;;;;;;0.40;40.42;102570.53;5013930;28;20089;-95
2020/12/21 02:19:32;;;;;;;49.53;26.88;;;;;;;0.80;40.26;102643.28;5020127;28;20024;-94
2020/12/21 02:21:59;;;;;;;37.78;20.52;;;;;;;0.45;40.44;102567.38;5001683;28;20049;-93
2020/12/21 02:24:26;;;;;;;39.50;20.98;;;;;;;1.06;39.95;102674.63;4999601;28;20038;-94
2020/12/21 02:26:54;;;;;;;30.92;18.52;;;;;;;-0.55;38.42;102380.06;5008092;28;20030;-94
2020/12/21 02:29:21;;;;;;;31.80;17.00;;;;;;;1.25;37.21;102668.34;5002341;28;20592;-96
2020/12/21 02:31:48;;;;;;;36.20;18.63;;;;;;;0.15;36.48;102501.00;4998550;28;20075;-94
2020/12/21 02:34:24;;;;;;;28.77;13.93;;;;;;;0.06;36.45;102464.59;4998565;28;20038;-96
2020/12/21 02:36:58;;;;;;;31.38;16.73;;;;;;;0.90;35.26;102588.75;5003720;28;20099;-95
2020/12/21 02:39:24;;;;;;;27.27;16.65;;;;;;;1.03;35.35;102632.16;4993355;28;20045;-95
2020/12/21 02:41:53;;;;;;;27.15;14.23;;;;;;;0.50;35.06;102513.31;5003214;28;20614;-94
2020/12/21 02:44:20;;;;;;;24.20;15.10;;;;;;;0.44;35.59;102511.16;5003960;28;20030;-96
2020/12/21 02:46:50;;;;;;;22.83;13.55;;;;;;;1.48;35.28;102641.69;5021663;28;20031;-96
2020/12/21 02:49:16;;;;;;;31.23;14.60;;;;;;;1.07;34.29;102584.47;5002102;28;20033;-93
2020/12/21 02:51:58;;;;;;;24.98;13.52;;;;;;;-0.97;35.51;102213.28;5015164;28;20034;-96
2020/12/21 02:54:36;;;;;;;31.60;16.30;;;;;;;1.04;35.77;102538.41;5021509;28;20069;-94
2020/12/21 02:57:05;;;;;;;24.25;14.82;;;;;;;0.82;36.33;102488.56;5005948;28;20026;-95
2020/12/21 02:59:32;;;;;;;33.53;17.25;;;;;;;-1.49;35.97;102147.25;5019894;28;20510;-95
2020/12/21 03:01:59;;;;;;;26.27;16.05;;;;;;;0.04;36.54;102353.06;5005102;28;20034;-92
2020/12/21 03:04:26;;;;;;;25.73;17.40;;;;;;;1.89;36.32;102667.97;4999030;28;20479;-95
2020/12/21 03:06:53;;;;;;;30.08;16.35;;;;;;;0.90;36.60;102451.53;5020985;28;20030;-95
2020/12/21 03:09:20;;;;;;;33.38;16.13;;;;;;;1.42;37.09;102571.28;5018568;28;20037;-95
2020/12/21 03:11:47;;;;;;;34.15;17.67;;;;;;;1.41;37.60;102598.75;4997398;28;20038;-95
2020/12/21 03:15:04;;;;;;;29.30;17.45;;;;;;;1.60;38.04;102623.28;5014297;28;20030;-94
2020/12/21 03:17:39;;;;;;;46.20;23.13;;;;;;;0.23;41.43;102447.56;4951769;29;20032;-95
2020/12/21 03:20:16;;;;;;;33.03;20.52;;;;;;;1.30;39.68;102627.03;5015108;28;20038;-95
2020/12/21 03:22:42;;;;;;;35.03;18.60;;;;;;;0.98;40.78;102587.19;5000739;28;20030;-96
2020/12/21 03:25:09;;;;;;;30.80;19.20;;;;;;;0.83;42.06;102527.59;4997599;28;20040;-94
2020/12/21 03:27:36;;;;;;;32.03;21.05;;;;;;;-0.38;43.84;102359.53;4997596;28;20026;-96
2020/12/21 03:30:15;;;;;;;;;;;;;;;;;;;;;
2020/12/21 03:32:42;;;;;;;38.00;20.98;;;;;;;0.64;44.41;102550.22;5014709;28;20121;-94
2020/12/21 03:35:09;;;;;;;32.97;22.20;;;;;;;1.04;43.90;102605.72;5000229;28;20113;-94
2020/12/21 03:37:36;;;;;;;41.35;20.98;;;;;;;0.58;43.81;102518.94;4999328;28;20026;-93
2020/12/21 03:40:06;;;;;;;38.20;20.85;;;;;;;1.01;44.57;102590.50;5013545;28;20043;-95
2020/12/21 03:42:34;;;;;;;37.40;20.73;;;;;;;0.60;43.66;102516.91;4994255;28;20034;-96
2020/12/21 03:45:02;;;;;;;37.83;20.73;;;;;;;0.90;43.32;102549.72;5015469;28;20479;-95
2020/12/21 03:47:29;;;;;;;34.67;20.50;;;;;;;1.07;43.49;102553.63;4981900;28;20030;-96
2020/12/21 03:49:56;;;;;;;43.10;24.25;;;;;;;-0.04;44.36;102372.84;4994968;28;20026;-96
2020/12/21 03:52:28;;;;;;;40.25;22.45;;;;;;;-1.72;43.86;102087.69;4994653;28;20069;-95
2020/12/21 03:54:55;;;;;;;36.75;21.55;;;;;;;0.04;44.31;102353.06;4995127;28;20069;-95
2020/12/21 03:57:22;;;;;;;36.50;21.00;;;;;;;1.52;44.64;102573.13;5010832;28;20150;-95
2020/12/21 03:59:49;;;;;;;47.80;22.08;;;;;;;1.33;44.09;102529.34;4995577;28;20068;-93
2020/12/21 04:02:16;;;;;;;42.10;22.40;;;;;;;1.61;44.50;102575.03;4998980;28;20045;-93
2020/12/21 04:04:43;;;;;;;36.15;21.42;;;;;;;0.64;44.35;102431.16;4997723;28;20034;-93
2020/12/21 04:07:10;;;;;;;39.97;20.00;;;;;;;1.60;44.78;102562.38;4998003;28;20049;-94
2020/12/21 04:09:37;;;;;;;38.63;21.40;;;;;;;1.01;44.51;102477.81;4998527;28;20037;-92
2020/12/21 04:12:04;;;;;;;38.47;22.48;;;;;;;1.61;44.57;102556.75;5013243;28;20050;-95
2020/12/21 04:14:31;;;;;;;42.53;22.83;;;;;;;1.14;44.47;102453.81;4996516;28;20026;-92
2020/12/21 04:17:01;;;;;;;39.30;20.88;;;;;;;0.81;44.53;102417.78;5011484;28;20045;-94
2020/12/21 04:19:28;;;;;;;43.25;21.50;;;;;;;1.45;44.91;102508.22;5025621;28;20026;-93
2020/12/21 04:21:55;;;;;;;40.80;22.77;;;;;;;1.26;45.50;102470.03;4994968;28;20030;-93
2020/12/21 04:24:22;;;;;;;37.17;22.58;;;;;;;1.89;45.22;102562.31;4999755;28;20022;-93
2020/12/21 04:26:49;;;;;;;43.25;22.60;;;;;;;1.83;45.18;102513.72;5001534;28;20065;-94
2020/12/21 04:29:16;;;;;;;50.10;25.35;;;;;;;2.09;45.06;102548.59;4996653;28;20056;-95
2020/12/21 04:31:43;;;;;;;35.92;23.67;;;;;;;1.27;45.42;102447.19;4995428;28;20041;-92
2020/12/21 04:34:10;;;;;;;38.88;24.42;;;;;;;1.94;45.88;102547.34;4994143;28;20027;-94
2020/12/21 04:36:37;;;;;;;40.58;21.35;;;;;;;2.05;45.96;102553.50;4994791;28;20085;-93
2020/12/21 04:39:04;;;;;;;42.70;22.25;;;;;;;2.04;46.10;102529.91;5007414;28;20050;-93
2020/12/21 04:41:31;;;;;;;44.55;22.33;;;;;;;1.88;46.82;102508.69;4998705;28;20065;-94
2020/12/21 04:43:58;;;;;;;37.97;21.52;;;;;;;1.53;45.83;102463.78;5002865;28;20443;-94
2020/12/21 04:46:26;;;;;;;32.35;22.23;;;;;;;1.86;45.90;102505.25;4994691;28;20064;-94
2020/12/21 04:49:13;;;;;;;30.45;17.45;;;;;;;1.82;47.78;102524.78;5023726;28;20042;-96
2020/12/21 04:51:42;;;;;;;33.38;19.35;;;;;;;2.06;47.92;102551.63;4992404;28;20022;-93
2020/12/21 04:54:09;;;;;;;33.63;20.23;;;;;;;2.18;46.66;102519.50;5027624;28;20026;-95
2020/12/21 04:56:37;;;;;;;35.88;19.38;;;;;;;1.86;46.83;102472.47;5005400;28;20061;-95
2020/12/21 04:59:08;;;;;;;30.60;18.65;;;;;;;1.92;47.23;102457.34;5001150;28;20040;-94
2020/12/21 05:01:40;;;;;;;35.90;21.33;;;;;;;0.56;48.59;102319.25;5028241;28;20018;-95
2020/12/21 05:04:08;;;;;;;34.28;19.73;;;;;;;2.02;48.84;102542.00;4989452;28;20050;-93
2020/12/21 05:06:58;;;;;;;33.15;20.45;;;;;;;1.75;49.08;102484.44;5003506;28;20030;-90
2020/12/21 05:09:26;;;;;;;35.00;20.45;;;;;;;2.42;49.00;102516.22;4992357;28;20129;-91
2020/12/21 05:12:05;;;;;;;33.15;19.00;;;;;;;2.40;49.05;102522.84;4996806;28;20058;-92
2020/12/21 05:14:46;;;;;;;32.95;19.17;;;;;;;2.45;48.23;102487.72;5000864;28;20030;-94
2020/12/21 05:17:31;;;;;;;33.97;18.42;;;;;;;1.45;48.01;102343.56;4991844;28;20034;-88
2020/12/21 05:20:04;;;;;;;31.55;18.88;;;;;;;0.73;49.46;102276.75;4989373;28;20046;-90
2020/12/21 05:22:31;;;;;;;34.15;20.10;;;;;;;1.69;50.62;102523.25;5023636;28;20549;-92
2020/12/21 05:25:08;;;;;;;34.25;22.13;;;;;;;0.84;49.86;102360.25;5006214;28;20023;-89
2020/12/21 05:27:46;;;;;;;32.20;20.02;;;;;;;2.13;49.75;102513.66;5010717;28;20022;-92
2020/12/21 05:30:13;;;;;;;35.22;19.73;;;;;;;2.01;48.56;102445.50;4999482;28;20559;-89
2020/12/21 05:32:40;;;;;;;39.85;20.77;;;;;;;1.96;49.03;102422.41;5006232;28;20061;-91
2020/12/21 05:35:09;;;;;;;24.88;16.70;;;;;;;1.69;49.27;102414.03;4989840;28;20027;-91
2020/12/21 05:37:39;;;;;;;28.38;15.93;;;;;;;1.85;49.71;102508.97;4991988;28;20026;-91
2020/12/21 05:40:09;;;;;;;28.77;17.05;;;;;;;1.31;48.79;102421.34;4971574;28;20034;-90
2020/12/21 05:42:37;;;;;;;32.88;19.48;;;;;;;1.97;48.31;102476.88;4971120;28;20093;-90
2020/12/21 05:45:08;;;;;;;26.63;17.65;;;;;;;1.34;49.93;102471.03;4971899;28;20034;-92
2020/12/21 05:47:35;;;;;;;26.17;17.33;;;;;;;2.00;49.61;102519.44;5003823;28;20034;-91
2020/12/21 05:50:07;;;;;;;36.42;19.13;;;;;;;0.28;49.11;102250.97;4987690;28;20031;-91
2020/12/21 05:52:36;;;;;;;33.30;20.10;;;;;;;1.12;48.90;102384.88;4973556;28;20037;-92
2020/12/21 05:55:12;;;;;;;34.25;19.95;;;;;;;1.83;49.31;102524.66;4974354;28;20026;-91
2020/12/21 05:57:40;;;;;;;32.40;18.48;;;;;;;1.86;49.52;102526.25;4991312;28;20023;-91
2020/12/21 06:00:14;;;;;;;35.08;21.00;;;;;;;1.52;49.32;102425.72;4976188;28;20046;-90
2020/12/21 06:02:41;;;;;;;32.28;18.27;;;;;;;2.18;49.09;102503.09;4977773;28;20128;-89
2020/12/21 06:05:16;;;;;;;34.03;19.33;;;;;;;2.23;48.66;102511.72;4976256;28;20027;-89
2020/12/21 06:07:51;;;;;;;28.55;17.63;;;;;;;2.23;49.16;102508.13;4975259;28;20194;-89
2020/12/21 06:10:18;;;;;;;32.30;19.20;;;;;;;1.25;48.72;102340.06;4990801;28;20033;-89
2020/12/21 06:12:50;;;;;;;30.55;19.98;;;;;;;1.64;48.27;102383.56;4976246;28;20101;-90
2020/12/21 06:15:26;;;;;;;30.40;19.05;;;;;;;2.13;48.95;102475.38;4977318;28;20035;-93
2020/12/21 06:17:53;;;;;;;34.03;18.80;;;;;;;1.92;48.60;102417.22;4975601;28;20464;-90
2020/12/21 06:20:20;;;;;;;25.80;17.70;;;;;;;1.81;48.72;102381.06;4974772;28;20035;-88
2020/12/21 06:22:47;;;;;;;25.75;17.33;;;;;;;2.02;49.06;102395.31;4975518;28;20031;-91
2020/12/21 06:25:24;;;;;;;31.67;18.88;;;;;;;2.62;49.10;102479.69;4971326;28;20472;-91
2020/12/21 06:27:51;;;;;;;33.72;20.08;;;;;;;2.27;48.97;102416.63;4975660;28;20041;-92
2020/12/21 06:30:30;;;;;;;31.48;20.58;;;;;;;2.16;48.74;102423.16;4977417;28;20518;-93
2020/12/21 06:33:04;;;;;;;34.53;21.08;;;;;;;1.95;49.29;102379.72;4991686;28;20031;-92
2020/12/21 06:35:42;;;;;;;46.88;24.88;;;;;;;1.33;49.07;102266.47;4975657;28;20038;-92
2020/12/21 06:38:13;;;;;;;37.72;22.02;;;;;;;2.64;48.92;102469.47;4983175;28;20076;-93
2020/12/21 06:40:40;;;;;;;33.60;21.17;;;;;;;1.55;48.91;102325.25;4994667;28;20442;-94
2020/12/21 06:43:12;;;;;;;30.70;18.95;;;;;;;1.66;49.54;102359.69;4996211;28;20419;-93
2020/12/21 06:45:39;;;;;;;29.05;19.20;;;;;;;0.15;49.54;102130.56;5008407;28;20026;-93
2020/12/21 06:48:10;;;;;;;27.42;18.42;;;;;;;2.03;49.37;102438.03;4996320;28;20073;-93
2020/12/21 06:50:37;;;;;;;24.95;18.70;;;;;;;0.68;49.73;102224.53;4999158;28;20034;-95
2020/12/21 06:53:10;;;;;;;33.30;20.05;;;;;;;1.07;50.10;102327.19;5002092;28;20033;-93
2020/12/21 06:55:39;;;;;;;31.25;18.63;;;;;;;2.28;50.17;102538.59;5004325;28;20022;-95
2020/12/21 06:58:09;;;;;;;31.27;18.63;;;;;;;0.77;49.99;102272.72;5022177;28;20026;-95
2020/12/21 07:01:01;;;;;;;31.27;19.05;;;;;;;1.85;50.12;102505.41;5007677;28;20034;-95
2020/12/21 07:03:31;;;;;;;39.35;20.38;;;;;;;1.49;51.36;102474.16;5004293;28;20046;-94
2020/12/21 07:06:07;;;;;;;46.42;22.63;;;;;;;0.37;50.44;102273.78;4984755;28;20120;-92
2020/12/21 07:08:34;;;;;;;31.13;18.38;;;;;;;1.91;50.45;102504.81;4985111;28;20034;-95
2020/12/21 07:11:01;;;;;;;33.17;19.88;;;;;;;0.52;50.25;102261.44;5000803;28;20026;-93
2020/12/21 07:13:31;;;;;;;37.22;21.40;;;;;;;1.17;50.05;102371.66;4978878;28;20034;-94
2020/12/21 07:16:00;;;;;;;32.78;21.98;;;;;;;1.32;50.44;102401.22;4974545;28;20034;-93
2020/12/21 07:18:27;;;;;;;36.22;20.90;;;;;;;0.19;50.77;102230.94;4994192;28;20046;-96
2020/12/21 07:20:55;;;;;;;31.25;20.85;;;;;;;1.70;51.81;102497.69;4977991;28;20041;-96
2020/12/21 07:23:25;;;;;;;35.08;21.25;;;;;;;0.79;51.34;102368.84;4983175;28;20054;-94
2020/12/21 07:25:52;;;;;;;30.92;18.08;;;;;;;1.41;51.75;102433.09;4984589;28;20177;-93
2020/12/21 07:28:26;;;;;;;33.67;22.15;;;;;;;0.81;51.26;102316.91;4991803;28;20034;-91
2020/12/21 07:30:55;;;;;;;34.85;21.92;;;;;;;0.82;51.27;102322.22;4978359;28;20034;-93
2020/12/21 07:33:22;;;;;;;35.50;23.35;;;;;;;0.77;51.35;102310.03;4980098;28;20054;-91
2020/12/21 07:36:06;;;;;;;37.28;23.23;;;;;;;1.59;52.51;102495.97;4993683;28;20026;-96
2020/12/21 07:38:34;;;;;;;46.47;25.67;;;;;;;1.38;52.66;102468.88;4973816;28;20050;-95
2020/12/21 07:41:01;;;;;;;40.78;24.00;;;;;;;1.53;52.70;102501.19;4997859;28;20514;-96
2020/12/21 07:43:35;;;;;;;38.83;24.00;;;;;;;0.58;52.84;102309.03;4992520;28;20372;-93
2020/12/21 07:46:10;;;;;;;37.05;22.70;;;;;;;1.59;52.22;102455.03;5009714;28;20053;-93
2020/12/21 07:48:38;;;;;;;43.03;25.35;;;;;;;0.53;51.92;102286.81;4993781;28;20334;-95
2020/12/21 07:51:07;;;;;;;33.33;23.40;;;;;;;1.63;52.48;102459.19;5009848;28;20026;-95
2020/12/21 07:53:38;;;;;;;39.40;20.45;;;;;;;1.42;51.81;102404.78;4994077;28;20030;-94
2020/12/21 07:56:05;;;;;;;46.72;21.88;;;;;;;1.32;52.69;102417.59;4993579;28;20041;-93
2020/12/21 07:58:35;;;;;;;32.53;21.08;;;;;;;2.01;52.68;102494.69;4994747;28;20068;-96
2020/12/21 08:01:02;;;;;;;;;;;;;;;2.04;51.87;102488.06;4995166;28;20058;-93
2020/12/21 08:03:31;;;;;;;35.13;21.45;;;;;;;1.04;53.06;102371.13;5004241;28;19914;-94
2020/12/21 08:06:14;;;;;;;40.72;24.15;;;;;;;1.69;52.90;102500.53;4996144;28;20030;-91
2020/12/21 08:08:41;;;;;;;37.13;23.95;;;;;;;0.88;53.16;102344.47;4993525;28;20045;-94
2020/12/21 08:11:19;;;;;;;40.05;24.75;;;;;;;1.73;52.95;102497.38;5008685;28;20030;-92
2020/12/21 08:13:51;;;;;;;39.05;23.10;;;;;;;1.18;53.26;102435.31;4993010;28;20041;-92
2020/12/21 08:16:25;;;;;;;44.42;26.95;;;;;;;1.69;53.08;102501.41;5009957;28;20034;-90
2020/12/21 08:18:53;;;;;;;34.65;23.08;;;;;;;1.53;53.27;102446.56;4993531;28;20030;-91
2020/12/21 08:21:29;;;;;;;46.03;23.40;;;;;;;1.47;53.84;102473.44;4992731;28;20484;-92
2020/12/21 08:23:59;;;;;;;41.60;23.60;;;;;;;1.76;53.44;102486.16;4993447;28;20045;-95
2020/12/21 08:26:27;;;;;;;46.50;24.90;;;;;;;1.71;52.86;102463.88;5004553;28;20037;-89
2020/12/21 08:28:55;;;;;;;46.20;28.23;;;;;;;1.91;53.50;102504.81;4991567;28;20038;-91
2020/12/21 08:31:25;;;;;;;38.63;24.58;;;;;;;1.70;53.46;102492.22;5005741;28;20030;-92
2020/12/21 08:34:05;;;;;;;35.17;24.15;;;;;;;1.63;54.15;102500.16;4994579;28;20034;-91
2020/12/21 08:36:40;;;;;;;36.22;22.15;;;;;;;1.53;54.03;102477.44;5008621;28;20030;-90
2020/12/21 08:39:18;;;;;;;34.75;22.00;;;;;;;1.19;54.11;102426.94;4993038;28;20042;-92
2020/12/21 08:41:51;;;;;;;38.28;23.17;;;;;;;1.55;54.13;102488.22;4999567;28;20081;-92
2020/12/21 08:44:23;;;;;;;37.70;24.30;;;;;;;1.38;54.30;102482.50;5005966;28;20026;-91
2020/12/21 08:46:53;;;;;;;36.10;22.67;;;;;;;1.53;54.46;102503.91;5006977;28;20121;-90
2020/12/21 08:49:25;;;;;;;39.45;23.40;;;;;;;1.31;53.93;102424.91;5002341;28;20023;-92
2020/12/21 08:51:52;;;;;;;36.38;23.65;;;;;;;1.54;53.71;102457.31;5016715;28;20038;-90
2020/12/21 08:54:19;;;;;;;43.00;25.15;;;;;;;1.09;54.19;102399.69;5008548;28;20141;-91
2020/12/21 08:56:48;;;;;;;34.08;23.13;;;;;;;1.65;54.22;102494.50;5007865;28;20034;-92
2020/12/21 08:59:18;;;;;;;33.00;23.35;;;;;;;1.68;54.16;102496.97;4992182;28;20093;-91
2020/12/21 09:01:45;;;;;;;32.58;21.23;;;;;;;1.64;54.53;102479.16;5008323;28;20518;-92
2020/12/21 09:04:13;;;;;;;37.63;23.60;;;;;;;1.71;54.67;102498.53;4992660;28;20037;-90
2020/12/21 09:06:40;;;;;;;39.50;24.15;;;;;;;1.48;54.56;102461.50;5008119;28;20034;-91
2020/12/21 09:09:08;;;;;;;36.75;23.73;;;;;;;1.29;54.91;102435.13;5008763;28;20092;-91
2020/12/21 09:11:36;;;;;;;40.65;26.50;;;;;;;1.73;54.86;102511.03;4994374;28;20050;-90
2020/12/21 09:14:03;;;;;;;36.97;23.02;;;;;;;1.03;54.35;102369.41;4999411;28;20034;-91
2020/12/21 09:16:31;;;;;;;40.15;23.73;;;;;;;1.52;54.96;102478.47;4993228;28;20038;-92
2020/12/21 09:19:00;;;;;;;40.90;23.42;;;;;;;1.75;54.65;102533.59;4992002;28;20106;-92
2020/12/21 09:21:29;;;;;;;34.05;24.17;;;;;;;1.36;54.80;102479.06;5008966;28;20487;-90
2020/12/21 09:24:00;;;;;;;38.73;25.07;;;;;;;0.52;54.92;102321.41;4992981;28;20041;-91
2020/12/21 09:26:28;;;;;;;36.85;25.65;;;;;;;1.77;54.87;102523.38;5011423;28;20066;-92
2020/12/21 09:28:56;;;;;;;36.63;25.50;;;;;;;1.11;54.48;102396.81;5012246;28;20027;-91
2020/12/21 09:31:24;;;;;;;39.40;24.35;;;;;;;0.71;54.59;102346.06;4996064;28;20042;-92
2020/12/21 09:33:51;;;;;;;39.80;25.02;;;;;;;1.52;54.32;102453.00;4996169;28;20503;-90
2020/12/21 09:36:19;;;;;;;37.63;24.38;;;;;;;1.54;54.36;102465.50;4995703;28;20038;-91
2020/12/21 09:38:47;;;;;;;39.25;23.40;;;;;;;0.44;55.27;102304.91;5011398;28;20081;-92
2020/12/21 09:41:20;;;;;;;38.75;24.63;;;;;;;1.48;54.90;102483.34;5001209;28;20038;-90
2020/12/21 09:43:51;;;;;;;39.08;25.33;;;;;;;1.26;55.26;102446.34;4989838;28;20053;-92
2020/12/21 09:46:35;;;;;;;52.10;24.67;;;;;;;1.54;55.28;102475.59;4989180;28;20031;-92
2020/12/21 09:49:04;;;;;;;43.65;25.73;;;;;;;1.59;55.33;102486.91;4996809;28;20031;-91
2020/12/21 09:51:32;;;;;;;38.53;23.52;;;;;;;1.53;54.94;102476.59;4985369;28;20026;-91
2020/12/21 09:53:59;;;;;;;48.28;25.48;;;;;;;0.73;55.47;102365.84;4985193;28;20045;-91
2020/12/21 09:56:26;;;;;;;40.38;25.48;;;;;;;1.34;56.19;102476.50;4986671;28;20113;-89
2020/12/21 09:58:53;;;;;;;41.25;26.33;;;;;;;0.71;55.28;102366.00;4991390;28;20121;-92
2020/12/21 10:01:20;;;;;;;45.13;28.17;;;;;;;1.08;55.34;102421.66;4978764;28;20419;-91
2020/12/21 10:03:47;;;;;;;39.65;25.50;;;;;;;1.81;55.83;102528.53;4997982;28;20041;-92
2020/12/21 10:06:14;;;;;;;36.22;24.38;;;;;;;0.94;55.21;102373.84;4982793;28;20069;-95
2020/12/21 10:08:41;;;;;;;38.65;26.55;;;;;;;1.44;55.82;102492.84;4987164;28;20018;-92
2020/12/21 10:11:08;;;;;;;47.65;28.02;;;;;;;1.59;55.95;102519.66;4983527;28;20372;-94
2020/12/21 10:13:35;;;;;;;42.75;28.67;;;;;;;0.50;55.92;102339.75;4989589;28;20034;-91
2020/12/21 10:16:02;;;;;;;39.58;24.80;;;;;;;1.14;56.27;102453.81;4985363;28;20483;-84
2020/12/21 10:18:29;;;;;;;45.10;27.38;;;;;;;0.94;56.35;102412.03;4987200;28;20421;-91
2020/12/21 10:20:56;;;;;;;38.67;25.55;;;;;;;1.52;56.62;102521.25;4979925;28;20022;-88
2020/12/21 10:23:23;;;;;;;41.00;24.25;;;;;;;0.61;57.16;102374.19;4984319;28;20041;-91
2020/12/21 10:25:50;;;;;;;43.90;27.45;;;;;;;1.31;57.40;102486.84;4985330;28;20030;-89
2020/12/21 10:28:17;;;;;;;43.00;27.95;;;;;;;1.51;57.51;102536.81;4994242;28;20030;-92
2020/12/21 10:30:44;;;;;;;44.40;27.05;;;;;;;1.30;57.86;102487.84;4989820;28;20398;-92
2020/12/21 10:33:11;;;;;;;39.38;27.58;;;;;;;0.65;58.03;102366.59;5000859;28;20098;-90
2020/12/21 10:35:39;;;;;;;43.58;28.67;;;;;;;1.50;58.58;102540.53;4986301;28;20137;-90
2020/12/21 10:38:06;;;;;;;41.05;26.38;;;;;;;1.47;58.41;102546.28;4992542;28;20030;-92
2020/12/21 10:40:33;;;;;;;43.47;26.65;;;;;;;1.52;58.29;102527.59;4997221;28;20513;-91
2020/12/21 10:43:01;;;;;;;45.40;28.77;;;;;;;1.46;58.46;102529.06;4993555;28;20053;-89
2020/12/21 10:45:28;;;;;;;47.78;28.02;;;;;;;0.65;58.58;102389.25;5014373;28;20080;-87
2020/12/21 10:47:55;;;;;;;41.03;27.48;;;;;;;1.43;59.04;102512.09;4991529;28;20069;-93
2020/12/21 10:50:22;;;;;;;45.30;29.40;;;;;;;0.26;59.33;102313.78;4996265;28;20494;-93
2020/12/21 10:52:49;;;;;;;43.67;27.23;;;;;;;1.54;59.98;102541.13;5013626;28;20470;-92
2020/12/21 10:55:16;;;;;;;47.47;30.73;;;;;;;1.30;60.57;102526.06;4996594;28;20025;-90
2020/12/21 10:57:43;;;;;;;47.33;27.85;;;;;;;1.49;60.60;102550.59;5011614;28;20096;-91
2020/12/21 11:00:09;;;;;;;49.65;29.08;;;;;;;1.58;60.52;102531.59;5013352;28;20074;-90
2020/12/21 11:02:36;;;;;;;39.10;29.40;;;;;;;1.54;60.53;102531.03;5011205;28;20034;-94
2020/12/21 11:05:04;;;;;;;46.50;29.15;;;;;;;0.90;61.43;102430.56;5005661;28;20033;-92
2020/12/21 11:07:34;;;;;;;41.33;28.23;;;;;;;0.04;61.60;102273.19;5017456;28;20056;-90
2020/12/21 11:10:03;;;;;;;59.40;31.67;;;;;;;0.30;61.96;102341.59;4999521;28;20135;-87
2020/12/21 11:12:30;;;;;;;49.92;28.85;;;;;;;0.90;61.63;102433.28;4997479;28;20029;-87
2020/12/21 11:14:57;;;;;;;51.55;30.95;;;;;;;1.66;61.53;102550.00;5013399;28;20026;-92
2020/12/21 11:17:24;;;;;;;43.88;30.63;;;;;;;1.09;61.61;102434.28;5000232;28;20105;-93
2020/12/21 11:19:51;;;;;;;46.58;29.15;;;;;;;0.65;61.34;102355.69;4997563;28;21580;-92
2020/12/21 11:22:18;;;;;;;45.60;28.77;;;;;;;1.03;61.26;102393.94;4995851;28;20061;-92
2020/12/21 11:24:45;;;;;;;47.85;30.38;;;;;;;0.98;60.82;102398.97;5011266;28;20037;-92
2020/12/21 11:27:11;;;;;;;44.83;27.95;;;;;;;1.29;60.69;102477.91;5005094;28;20030;-90
2020/12/21 11:29:38;;;;;;;45.58;27.65;;;;;;;1.49;61.17;102527.91;4997421;28;20032;-93
2020/12/21 11:32:05;;;;;;;43.28;30.63;;;;;;;0.75;61.24;102421.09;5014138;28;20034;-88
2020/12/21 11:34:32;;;;;;;51.53;31.00;;;;;;;1.52;61.30;102524.00;4994554;28;20025;-90
2020/12/21 11:36:59;;;;;;;50.58;29.73;;;;;;;-0.63;61.08;102175.84;4998159;28;20029;-87
2020/12/21 11:39:26;;;;;;;47.92;29.55;;;;;;;0.84;61.01;102420.25;5010427;28;20096;-89
2020/12/21 11:41:53;;;;;;;48.90;29.40;;;;;;;-0.17;60.76;102245.09;4995626;28;20053;-91
2020/12/21 11:44:20;;;;;;;48.13;30.70;;;;;;;-1.09;60.94;102100.19;4995011;28;20045;-89
2020/12/21 11:46:47;;;;;;;53.58;30.17;;;;;;;0.55;60.76;102374.75;5012450;28;20462;-88